• Join FlightAware (Why Join?)
  • Login
  • US Flag 
06:03AM EDT


 

Airport Tracker/Info


-or-


 

Live Flight TrackerFlight Track Log ✈ SWA2182 ✈ 11-Apr-2013 ✈ KBOS - KBWI

Flight Track Log - Related Links

Times and Time Zones

All times are in EDT time to prevent confusion due to time zone crossing. See the SWA2182 flight status page for this flight to view local times or setup timezone preferences in your user account.

Time Position Orientation Groundspeed Altitude Reporting Facility
EDT Latitude Longitude Course Direction KTS MPH feet Rate Location/Type
09:13PM 42.3667 -70.9833 82° East 190 219 900  Level KA90
09:16PM 42.3883 -70.7817 82° East 267 307 7,200 2,760 Climbing Boston Center
09:17PM 42.3250 -70.7272 148° Southeast 254 292 10,500 3,000 Climbing Boston Center
09:19PM 42.2378 -70.8978 235° Southwest 213 245 16,300 2,700 Climbing Boston Center
09:19PM 42.2186 -71.0272 259° West 328 377 18,700 2,220 Climbing Boston Center
09:20PM 42.2014 -71.1508 259° West 345 397 20,700 1,860 Climbing Boston Center
09:21PM 42.1819 -71.2831 259° West 363 418 22,400 1,560 Climbing Boston Center
09:22PM 42.1603 -71.4261 258° West 376 433 23,900 1,560 Climbing Boston Center
09:24PM 42.1303 -71.5778 255° West 382 440 25,600 1,920 Climbing Boston Center
09:25PM 42.1125 -71.7208 261° West 387 445 27,900 2,040 Climbing Boston Center
09:25PM 42.1114 -71.8636 269° West 387 445 29,700 1,620 Climbing Boston Center
09:26PM 42.0681 -71.9869 245° Southwest 368 423 31,200 1,500 Climbing Boston Center
09:27PM 42.0081 -72.0992 234° Southwest 368 423 32,800 1,380 Climbing Boston Center
09:28PM 41.9542 -72.2139 238° Southwest 368 423 34,000 540 Climbing Boston Center
09:30PM 41.8878 -72.3508 237° Southwest 373 429 34,000  Level Boston Center
09:31PM 41.8314 -72.4708 238° Southwest 373 429 34,000  Level Boston Center
09:32PM 41.7731 -72.5875 236° Southwest 379 436 34,000  Level Boston Center
09:33PM 41.7164 -72.7072 238° Southwest 384 442 34,000  Level Boston Center
09:34PM 41.6558 -72.8264 236° Southwest 391 450 34,000  Level Boston Center
09:35PM 41.5969 -72.9453 237° Southwest 391 450 34,000  Level Boston Center
09:36PM 41.5400 -73.0642 237° Southwest 391 450 34,000  Level Boston Center
09:37PM 41.4872 -73.1717 237° Southwest 379 436 34,000  Level Boston Center
09:38PM 41.4303 -73.2844 236° Southwest 374 430 34,000  Level Boston Center
09:39PM 41.3731 -73.4000 237° Southwest 368 423 34,000  Level Boston Center
09:40PM 41.3200 -73.5125 238° Southwest 368 423 34,000  Level Boston Center
09:42PM 41.1822 -73.7539 233° Southwest 385 443 34,000  Level New York Center
09:43PM 41.1169 -73.8614 231° Southwest 385 443 34,000 -60 Level New York Center
09:44PM 41.0536 -73.9711 233° Southwest 385 443 33,900  Descending New York Center
09:45PM 40.9903 -74.0781 232° Southwest 385 443 34,000  Climbing New York Center
09:46PM 40.9161 -74.1925 229° Southwest 380 437 34,000  Level New York Center
09:47PM 40.8506 -74.2989 231° Southwest 380 437 34,000  Level New York Center
09:48PM 40.7869 -74.4053 232° Southwest 380 437 34,000  Level New York Center
09:49PM 40.7211 -74.5142 231° Southwest 380 437 34,000  Level New York Center
09:50PM 40.6528 -74.6253 231° Southwest 385 443 34,000 -60 Level New York Center
09:51PM 40.5867 -74.7361 232° Southwest 385 443 33,900 -960 Descending New York Center
09:52PM 40.5167 -74.8358 227° Southwest 385 443 32,100 -2,340 Descending New York Center
09:53PM 40.4419 -74.9433 228° Southwest 391 450 29,200 -2,700 Descending New York Center
09:54PM 40.3694 -75.0478 228° Southwest 396 456 26,800 -2,400 Descending New York Center
09:55PM 40.2969 -75.1494 227° Southwest 396 456 24,400 -2,340 Descending New York Center
09:56PM 40.2156 -75.2614 226° Southwest 383 441 21,700 -2,160 Descending New York Center
09:57PM 40.1497 -75.3519 226° Southwest 365 420 19,800 -1,380 Descending New York Center
09:58PM 40.0900 -75.4378 228° Southwest 360 414 19,000 -420 Descending New York Center
09:59PM 40.0175 -75.5331 225° Southwest 343 395 19,000  Level New York Center
10:00PM 39.9556 -75.6211 227° Southwest 331 381 19,000  Level New York Center
10:01PM 39.8953 -75.7142 230° Southwest 336 387 19,000 -1,200 Level New York Center
10:03PM 39.8268 -75.8358 234° Southwest  Level FlightAware Approximate
10:04PM 39.7500 -75.9833 234° Southwest 338 389 14,700  Level Potomac TRACON
10:05PM 39.6833 -76.1000 233° Southwest 329 379 12,100 -1,440 Descending Potomac TRACON
10:07PM 39.6000 -76.3000 242° Southwest 323 372 10,300 -840 Descending Potomac TRACON
10:09PM 39.5000 -76.4833 235° Southwest 276 318 8,900 -900 Descending Potomac TRACON
10:10PM 39.4500 -76.5333 218° Southwest 258 297 7,700 -1,440 Descending Potomac TRACON
10:12PM 39.3500 -76.6833 229° Southwest 249 287 4,700 -1,380 Descending Potomac TRACON
10:13PM 39.3167 -76.7333 229° Southwest 239 275 3,800 -1,020 Descending Potomac TRACON
10:14PM 39.2833 -76.8000 237° Southwest 222 255 2,700 -480 Descending Potomac TRACON
10:16PM 39.1845 -76.6794 137° Southeast  Level Estimated
10:17PM 39.1833 -76.8833 137° Southeast 202 232 2,000  Level Potomac TRACON
10:19PM 39.1833 -76.7667 90° East 139 160 1,300 -360 Descending Potomac TRACON
10:21PM 39.1667 -76.6667 270° West  Level FlightAware Approximate
10:28PM 39.1754 -76.6683 270° West  Level Estimated
10:29PM 39.1754 -76.6683 270° West  Level Estimated
10:30PM 39.1754 -76.6683 270° West  Level Estimated
10:31PM 39.1754 -76.6683 270° West  Level Estimated
10:32PM 39.1754 -76.6683 270° West  Level Estimated